Terminal Aerodrome Forecast
Issued by NWS Wilmington, OH

Current Version | Previous Version | Graphics & Text | Print | Product List | Glossary On
Versions: 1 2 3 4 5 6 7 8 9 10 11 12 13 14 15 16 17 18 19 20
000
FTUS41 KILN 261100
TAFCVG
TAF
KCVG 261132Z 2612/2718 17004KT P6SM SCT250
     FM261500 18004KT P6SM SCT035 SCT250
     FM262300 24004KT P6SM BKN250
     FM270800 21002KT 5SM BR BKN100
     FM271300 29007KT P6SM OVC050=

USA.gov is the U.S. government's official web portal to all federal, state and local government web resources and services.